Agia Marina — SX5375 — position and weather

sailwx.info

Track history (hours):
 
Tides and Currents Weather Stations Pressure Air Temp Water Temp Dewpoint Dewpoint Depression Visibility Wind Speed Wind Dir Waves Ship Positions

Agia Marina

Last reported at 2014-Aug-20 10:33 UTC. Time now 2014-Aug-20 10:52 UTC.
Position N 37°32' E 025°09'.

Length 59 m; draft 2.5 m.

Type: Cargo ship. MMSI: 237042500.

Date/timePositionNaut miles runAvg speedWind from/ knotsBaromVisibWave heightAir tempDewpointWater temp
2014-Aug-20 10:33N 37°32' E 025°09'0 0.0
2014-Aug-20 09:33N 37°32' E 025°09'4 3.6
2014-Aug-20 08:33N 37°29' E 025°09'6 6.0
2014-Aug-20 07:33N 37°23' E 025°12'6 5.8
2014-Aug-20 06:33N 37°18' E 025°14'6 5.9
2014-Aug-20 05:33N 37°13' E 025°18'6 6.0
2014-Aug-20 04:33N 37°07' E 025°22'2 1.8
2014-Aug-20 03:33N 37°06' E 025°20'2 1.8
2014-Aug-20 02:33N 37°04' E 025°21'0 0.0
2014-Aug-20 01:33N 37°04' E 025°21'0 0.0
2014-Aug-20 00:33N 37°04' E 025°21'0 0.0
2014-Aug-19 23:33N 37°04' E 025°21'0 0.0
2014-Aug-19 22:33N 37°04' E 025°21'0 0.0
2014-Aug-19 21:33N 37°04' E 025°21'0 0.0
2014-Aug-19 20:33N 37°04' E 025°21'0 0.0
2014-Aug-19 19:33N 37°04' E 025°21'0 0.0
2014-Aug-19 18:33N 37°04' E 025°21'0 0.0
2014-Aug-19 17:33N 37°04' E 025°21'0 0.0
2014-Aug-19 16:32N 37°04' E 025°21'0 0.0
2014-Aug-19 15:31N 37°04' E 025°21'0 0.0
2014-Aug-19 14:33N 37°04' E 025°21'0 0.0
2014-Aug-19 13:32N 37°04' E 025°21'1 0.5
2014-Aug-19 12:32N 37°04' E 025°20'2 2.5
2014-Aug-19 11:33N 37°07' E 025°21'2 2.2
2014-Aug-19 10:29N 37°04' E 025°21'0 0.0
2014-Aug-19 09:33N 37°04' E 025°21'0 0.0
2014-Aug-19 08:32N 37°04' E 025°21'0 0.0
2014-Aug-19 07:30N 37°04' E 025°21'0 0.0
2014-Aug-19 06:33N 37°04' E 025°21'2 2.2
2014-Aug-19 05:32N 37°06' E 025°22'1 1.2
2014-Aug-19 04:33N 37°06' E 025°20'2 1.6
2014-Aug-19 03:33N 37°04' E 025°21'0 0.0
2014-Aug-19 02:32N 37°04' E 025°21'0 0.0
2014-Aug-19 01:33N 37°04' E 025°21'0 0.0
2014-Aug-19 00:33N 37°04' E 025°21'0 0.0
2014-Aug-18 23:33N 37°04' E 025°21'0 0.0
2014-Aug-18 22:33N 37°04' E 025°21'0 0.0
2014-Aug-18 21:33N 37°04' E 025°21'0 0.0
2014-Aug-18 20:33N 37°04' E 025°21'0 0.0
2014-Aug-18 19:33N 37°04' E 025°21'0 0.0
2014-Aug-18 18:33N 37°04' E 025°21'0 0.0
2014-Aug-18 17:33N 37°04' E 025°21'0 0.0
2014-Aug-18 16:33N 37°04' E 025°21'0 0.0
2014-Aug-18 15:33N 37°04' E 025°21'0 0.0
2014-Aug-18 14:33N 37°04' E 025°21'0 0.0
2014-Aug-18 13:33N 37°04' E 025°21'0 0.0
2014-Aug-18 12:33N 37°04' E 025°21'0 0.0
2014-Aug-18 11:33N 37°04' E 025°21'0 0.0
2014-Aug-18 10:33N 37°04' E 025°21'0 0.0
2014-Aug-18 09:33N 37°04' E 025°21'0 0.0
2014-Aug-18 08:33N 37°04' E 025°21'0 0.0
2014-Aug-18 07:33N 37°04' E 025°21'0 0.0
2014-Aug-18 06:31N 37°04' E 025°21'0 0.0
2014-Aug-18 05:33N 37°04' E 025°21'0 0.0
2014-Aug-18 04:32N 37°04' E 025°21'0 0.0
2014-Aug-18 03:32N 37°04' E 025°21'0 0.0
2014-Aug-18 02:33N 37°04' E 025°21'0 0.0
2014-Aug-18 01:32N 37°04' E 025°21'0 0.0
2014-Aug-18 00:30N 37°04' E 025°21'0 0.0
2014-Aug-17 18:33N 37°04' E 025°21'0 0.0
2014-Aug-17 17:33N 37°04' E 025°21'0 0.0
2014-Aug-17 16:33N 37°04' E 025°21'2 2.5
2014-Aug-17 15:33N 37°06' E 025°22'1 1.4
2014-Aug-17 14:33N 37°07' E 025°21'4 3.6
2014-Aug-17 13:33N 37°10' E 025°18'6 6.3
2014-Aug-17 12:33N 37°08' E 025°10'3 3.1
2014-Aug-17 11:33N 37°05' E 025°09'0 0.0
2014-Aug-17 10:31N 37°05' E 025°09'0 0.0
2014-Aug-17 09:33N 37°05' E 025°09'0 0.0
2014-Aug-17 08:33N 37°05' E 025°09'0 0.0
2014-Aug-17 07:33N 37°05' E 025°09'0 0.0
2014-Aug-17 06:33N 37°05' E 025°09'0 0.0
2014-Aug-17 05:32N 37°05' E 025°09'0 0.0
2014-Aug-17 04:34N 37°05' E 025°09'0 0.2
2014-Aug-17 03:33N 37°05' E 025°09'0 0.4
2014-Aug-17 02:33N 37°06' E 025°08'0 0.0
2014-Aug-17 01:31N 37°06' E 025°08'0 0.0
2014-Aug-17 00:33N 37°06' E 025°08'0 0.0
2014-Aug-16 23:33N 37°06' E 025°08'0 0.0
2014-Aug-16 22:33N 37°06' E 025°08'1 0.9
2014-Aug-16 21:33N 37°05' E 025°07'7 7.1
2014-Aug-16 20:33N 37°04' E 024°58'7 7.5
2014-Aug-16 19:33N 37°04' E 024°49'7 7.0
2014-Aug-16 18:33N 37°03' E 024°40'9 1.5
2014-Aug-16 12:33N 37°09' E 024°31'0 0.0
2014-Aug-16 11:33N 37°09' E 024°31'6 5.5
2014-Aug-16 10:33N 37°11' E 024°37'7 7.5
2014-Aug-16 09:33N 37°15' E 024°45'7 7.4
2014-Aug-16 08:33N 37°20' E 024°52'7 6.8
2014-Aug-16 07:34N 37°24' E 024°59'2 2.3
2014-Aug-16 06:32N 37°26' E 024°56'0 0.0
2014-Aug-16 05:32N 37°26' E 024°56'0 0.0
2014-Aug-16 04:33N 37°26' E 024°56'0 0.0
2014-Aug-16 03:32N 37°26' E 024°56'0 0.0
2014-Aug-16 02:32N 37°26' E 024°56'0 0.0
2014-Aug-16 01:32N 37°26' E 024°56'0 0.0
2014-Aug-16 00:33N 37°26' E 024°56'0 0.0
2014-Aug-15 23:30N 37°26' E 024°56'0 0.0
2014-Aug-15 22:32N 37°26' E 024°56'0 0.0
2014-Aug-15 21:33N 37°26' E 024°56'0 0.0
2014-Aug-15 20:32N 37°26' E 024°56'0 0.0
2014-Aug-15 19:33N 37°26' E 024°56'0 0.0
2014-Aug-15 18:32N 37°26' E 024°56'0 0.0
2014-Aug-15 17:32N 37°26' E 024°56'0 0.0
2014-Aug-15 16:32N 37°26' E 024°56'1 0.9
2014-Aug-15 15:33N 37°26' E 024°57'8 6.2
2014-Aug-15 14:18N 37°32' E 024°50'6 7.6
2014-Aug-15 13:33N 37°34' E 024°44'7 7.3
2014-Aug-15 12:33N 37°37' E 024°35'6 6.2
2014-Aug-15 11:33N 37°40' E 024°28'21 1.1
2014-Aug-14 17:32N 37°38' E 024°02'9 7.1
2014-Aug-14 16:18N 37°38' E 023°51'6 6.9
2014-Aug-14 15:26N 37°39' E 023°44'6 6.5
2014-Aug-14 14:33N 37°44' E 023°40'7 6.5
2014-Aug-14 13:33N 37°50' E 023°37'7 6.6
2014-Aug-14 12:33N 37°56' E 023°35'5 5.3
2014-Aug-14 11:33N 38°02' E 023°35'0 0.4
2014-Aug-14 10:28N 38°02' E 023°36'0 0.0
2014-Aug-14 09:13N 38°02' E 023°36'0 0.0
2014-Aug-14 08:28N 38°02' E 023°36'0 0.0
2014-Aug-14 07:32N 38°02' E 023°36'0 0.0
2014-Aug-14 06:23N 38°02' E 023°36'0 0.0
2014-Aug-14 05:05N 38°02' E 023°36'0 0.0
2014-Aug-14 04:24N 38°02' E 023°36'0 0.0
2014-Aug-14 03:15N 38°02' E 023°36'0 0.0
2014-Aug-14 02:29N 38°02' E 023°36'0 0.0
2014-Aug-14 01:33N 38°02' E 023°36'0 0.0
2014-Aug-14 00:31N 38°02' E 023°36'0 0.0
2014-Aug-13 23:16N 38°02' E 023°36'0 0.0
2014-Aug-13 22:31N 38°02' E 023°36'0 0.0
2014-Aug-13 21:20N 38°02' E 023°36'0 0.0
2014-Aug-13 20:33N 38°02' E 023°36'0 0.0
2014-Aug-13 19:33N 38°02' E 023°36'0 0.0
2014-Aug-13 18:32N 38°02' E 023°36'0 0.0
2014-Aug-13 17:25N 38°02' E 023°36'0 0.0
2014-Aug-13 16:29N 38°02' E 023°36'0 0.0
2014-Aug-13 15:33N 38°02' E 023°36'0 0.0
2014-Aug-13 14:33N 38°02' E 023°36'0 0.0
2014-Aug-13 13:33N 38°02' E 023°36'0 0.0
2014-Aug-13 12:33N 38°02' E 023°36'0 0.0
2014-Aug-13 11:29N 38°02' E 023°36'0 0.0
2014-Aug-13 10:33N 38°02' E 023°36'0 0.0
2014-Aug-13 09:24N 38°02' E 023°36'0 0.0
2014-Aug-13 08:29N 38°02' E 023°36'0 0.0
2014-Aug-13 07:30N 38°02' E 023°36'0 0.0
2014-Aug-13 06:30N 38°02' E 023°36'0 0.0
2014-Aug-13 05:31N 38°02' E 023°36'0 0.0
2014-Aug-13 04:29N 38°02' E 023°36'0 0.0
2014-Aug-13 03:33N 38°02' E 023°36'0 0.0
2014-Aug-12 22:29N 38°02' E 023°36'0 0.0
2014-Aug-12 20:25N 38°02' E 023°36'0 0.0
2014-Aug-12 19:15N 38°02' E 023°36'0 0.0
2014-Aug-12 18:11N 38°02' E 023°36'0 0.0
2014-Aug-12 17:25N 38°02' E 023°36'0 0.0
2014-Aug-12 16:33N 38°02' E 023°36'0 0.0
2014-Aug-12 15:29N 38°02' E 023°36'0 0.0
2014-Aug-12 14:29N 38°02' E 023°36'0 0.0
2014-Aug-12 13:03N 38°02' E 023°36'0 0.0
2014-Aug-12 12:31N 38°02' E 023°36'0 0.0
2014-Aug-12 10:31N 38°02' E 023°36'0 0.0
2014-Aug-12 09:26N 38°02' E 023°36'0 0.0
2014-Aug-12 08:33N 38°02' E 023°36'0 0.0
2014-Aug-12 07:33N 38°02' E 023°36'0 0.0
2014-Aug-12 06:30N 38°02' E 023°36'0 0.0
2014-Aug-12 05:22N 38°02' E 023°36'0 0.0
2014-Aug-11 20:33N 38°02' E 023°36'0 0.0
2014-Aug-11 17:31N 38°02' E 023°36'0 0.0
2014-Aug-11 16:33N 38°02' E 023°36'0 0.0
2014-Aug-11 15:30N 38°02' E 023°36'0 0.0
2014-Aug-11 14:32N 38°02' E 023°36'0 0.0
2014-Aug-11 13:30N 38°02' E 023°36'0 0.0
2014-Aug-11 12:33N 38°02' E 023°36'0 0.0
2014-Aug-11 11:28N 38°02' E 023°36'0 0.0
2014-Aug-11 10:29N 38°02' E 023°36'0 0.0
2014-Aug-11 09:14N 38°02' E 023°36'0 0.0
2014-Aug-11 08:12N 38°02' E 023°36'0 0.0
2014-Aug-11 07:33N 38°02' E 023°36'0 0.0
2014-Aug-11 06:22N 38°02' E 023°36'0 0.0
2014-Aug-11 05:32N 38°02' E 023°36'0 0.0
2014-Aug-11 04:33N 38°02' E 023°36'0 0.0
2014-Aug-11 03:16N 38°02' E 023°36'0 0.0
2014-Aug-11 01:18N 38°02' E 023°36'0 0.0
2014-Aug-11 00:25N 38°02' E 023°36'0 0.0
2014-Aug-10 23:23N 38°02' E 023°36'0 0.0
2014-Aug-10 22:26N 38°02' E 023°36'0 0.0
2014-Aug-10 21:33N 38°02' E 023°36'0 0.0
2014-Aug-10 20:10N 38°02' E 023°36'0 0.0
2014-Aug-10 18:26N 38°02' E 023°36'0 0.0
2014-Aug-10 17:33N 38°02' E 023°36'0 0.0
2014-Aug-10 16:32N 38°02' E 023°36'0 0.0
2014-Aug-10 15:33N 38°02' E 023°36'0 0.0
2014-Aug-10 14:33N 38°02' E 023°36'0 0.0
2014-Aug-10 13:33N 38°02' E 023°36'7 6.8
2014-Aug-10 12:33N 38°00' E 023°27'7 6.4
2014-Aug-10 11:32N 37°55' E 023°23'7 7.4
2014-Aug-10 10:33N 37°47' E 023°25'  
Track history (hours):
 
Tides and Currents Weather Stations Pressure Air Temp Water Temp Dewpoint Dewpoint Depression Visibility Wind Speed Wind Dir Waves Ship Positions

Agia Marina

Last reported at 2014-Aug-20 10:33 UTC. Time now 2014-Aug-20 10:52 UTC.
Position N 37°32' E 025°09'.

Length 59 m; draft 2.5 m.

Type: Cargo ship. MMSI: 237042500.

Date/timePositionNaut miles runAvg speedWind from/ knotsBaromVisibWave heightAir tempDewpointWater temp
2014-Aug-20 10:33N 37°32' E 025°09'0 0.0
2014-Aug-20 09:33N 37°32' E 025°09'4 3.6
2014-Aug-20 08:33N 37°29' E 025°09'6 6.0
2014-Aug-20 07:33N 37°23' E 025°12'6 5.8
2014-Aug-20 06:33N 37°18' E 025°14'6 5.9
2014-Aug-20 05:33N 37°13' E 025°18'6 6.0
2014-Aug-20 04:33N 37°07' E 025°22'2 1.8
2014-Aug-20 03:33N 37°06' E 025°20'2 1.8
2014-Aug-20 02:33N 37°04' E 025°21'0 0.0
2014-Aug-20 01:33N 37°04' E 025°21'0 0.0
2014-Aug-20 00:33N 37°04' E 025°21'0 0.0
2014-Aug-19 23:33N 37°04' E 025°21'0 0.0
2014-Aug-19 22:33N 37°04' E 025°21'0 0.0
2014-Aug-19 21:33N 37°04' E 025°21'0 0.0
2014-Aug-19 20:33N 37°04' E 025°21'0 0.0
2014-Aug-19 19:33N 37°04' E 025°21'0 0.0
2014-Aug-19 18:33N 37°04' E 025°21'0 0.0
2014-Aug-19 17:33N 37°04' E 025°21'0 0.0
2014-Aug-19 16:32N 37°04' E 025°21'0 0.0
2014-Aug-19 15:31N 37°04' E 025°21'0 0.0
2014-Aug-19 14:33N 37°04' E 025°21'0 0.0
2014-Aug-19 13:32N 37°04' E 025°21'1 0.5
2014-Aug-19 12:32N 37°04' E 025°20'2 2.5
2014-Aug-19 11:33N 37°07' E 025°21'2 2.2
2014-Aug-19 10:29N 37°04' E 025°21'0 0.0
2014-Aug-19 09:33N 37°04' E 025°21'0 0.0
2014-Aug-19 08:32N 37°04' E 025°21'0 0.0
2014-Aug-19 07:30N 37°04' E 025°21'0 0.0
2014-Aug-19 06:33N 37°04' E 025°21'2 2.2
2014-Aug-19 05:32N 37°06' E 025°22'1 1.2
2014-Aug-19 04:33N 37°06' E 025°20'2 1.6
2014-Aug-19 03:33N 37°04' E 025°21'0 0.0
2014-Aug-19 02:32N 37°04' E 025°21'0 0.0
2014-Aug-19 01:33N 37°04' E 025°21'0 0.0
2014-Aug-19 00:33N 37°04' E 025°21'0 0.0
2014-Aug-18 23:33N 37°04' E 025°21'0 0.0
2014-Aug-18 22:33N 37°04' E 025°21'0 0.0
2014-Aug-18 21:33N 37°04' E 025°21'0 0.0
2014-Aug-18 20:33N 37°04' E 025°21'0 0.0
2014-Aug-18 19:33N 37°04' E 025°21'0 0.0
2014-Aug-18 18:33N 37°04' E 025°21'0 0.0
2014-Aug-18 17:33N 37°04' E 025°21'0 0.0
2014-Aug-18 16:33N 37°04' E 025°21'0 0.0
2014-Aug-18 15:33N 37°04' E 025°21'0 0.0
2014-Aug-18 14:33N 37°04' E 025°21'0 0.0
2014-Aug-18 13:33N 37°04' E 025°21'0 0.0
2014-Aug-18 12:33N 37°04' E 025°21'0 0.0
2014-Aug-18 11:33N 37°04' E 025°21'0 0.0
2014-Aug-18 10:33N 37°04' E 025°21'0 0.0
2014-Aug-18 09:33N 37°04' E 025°21'0 0.0
2014-Aug-18 08:33N 37°04' E 025°21'0 0.0
2014-Aug-18 07:33N 37°04' E 025°21'0 0.0
2014-Aug-18 06:31N 37°04' E 025°21'0 0.0
2014-Aug-18 05:33N 37°04' E 025°21'0 0.0
2014-Aug-18 04:32N 37°04' E 025°21'0 0.0
2014-Aug-18 03:32N 37°04' E 025°21'0 0.0
2014-Aug-18 02:33N 37°04' E 025°21'0 0.0
2014-Aug-18 01:32N 37°04' E 025°21'0 0.0
2014-Aug-18 00:30N 37°04' E 025°21'0 0.0
2014-Aug-17 18:33N 37°04' E 025°21'0 0.0
2014-Aug-17 17:33N 37°04' E 025°21'0 0.0
2014-Aug-17 16:33N 37°04' E 025°21'2 2.5
2014-Aug-17 15:33N 37°06' E 025°22'1 1.4
2014-Aug-17 14:33N 37°07' E 025°21'4 3.6
2014-Aug-17 13:33N 37°10' E 025°18'6 6.3
2014-Aug-17 12:33N 37°08' E 025°10'3 3.1
2014-Aug-17 11:33N 37°05' E 025°09'0 0.0
2014-Aug-17 10:31N 37°05' E 025°09'0 0.0
2014-Aug-17 09:33N 37°05' E 025°09'0 0.0
2014-Aug-17 08:33N 37°05' E 025°09'0 0.0
2014-Aug-17 07:33N 37°05' E 025°09'0 0.0
2014-Aug-17 06:33N 37°05' E 025°09'0 0.0
2014-Aug-17 05:32N 37°05' E 025°09'0 0.0
2014-Aug-17 04:34N 37°05' E 025°09'0 0.2
2014-Aug-17 03:33N 37°05' E 025°09'0 0.4
2014-Aug-17 02:33N 37°06' E 025°08'0 0.0
2014-Aug-17 01:31N 37°06' E 025°08'0 0.0
2014-Aug-17 00:33N 37°06' E 025°08'0 0.0
2014-Aug-16 23:33N 37°06' E 025°08'0 0.0
2014-Aug-16 22:33N 37°06' E 025°08'1 0.9
2014-Aug-16 21:33N 37°05' E 025°07'7 7.1
2014-Aug-16 20:33N 37°04' E 024°58'7 7.5
2014-Aug-16 19:33N 37°04' E 024°49'7 7.0
2014-Aug-16 18:33N 37°03' E 024°40'9 1.5
2014-Aug-16 12:33N 37°09' E 024°31'0 0.0
2014-Aug-16 11:33N 37°09' E 024°31'6 5.5
2014-Aug-16 10:33N 37°11' E 024°37'7 7.5
2014-Aug-16 09:33N 37°15' E 024°45'7 7.4
2014-Aug-16 08:33N 37°20' E 024°52'7 6.8
2014-Aug-16 07:34N 37°24' E 024°59'2 2.3
2014-Aug-16 06:32N 37°26' E 024°56'0 0.0
2014-Aug-16 05:32N 37°26' E 024°56'0 0.0
2014-Aug-16 04:33N 37°26' E 024°56'0 0.0
2014-Aug-16 03:32N 37°26' E 024°56'0 0.0
2014-Aug-16 02:32N 37°26' E 024°56'0 0.0
2014-Aug-16 01:32N 37°26' E 024°56'0 0.0
2014-Aug-16 00:33N 37°26' E 024°56'0 0.0
2014-Aug-15 23:30N 37°26' E 024°56'0 0.0
2014-Aug-15 22:32N 37°26' E 024°56'0 0.0
2014-Aug-15 21:33N 37°26' E 024°56'0 0.0
2014-Aug-15 20:32N 37°26' E 024°56'0 0.0
2014-Aug-15 19:33N 37°26' E 024°56'0 0.0
2014-Aug-15 18:32N 37°26' E 024°56'0 0.0
2014-Aug-15 17:32N 37°26' E 024°56'0 0.0
2014-Aug-15 16:32N 37°26' E 024°56'1 0.9
2014-Aug-15 15:33N 37°26' E 024°57'8 6.2
2014-Aug-15 14:18N 37°32' E 024°50'6 7.6
2014-Aug-15 13:33N 37°34' E 024°44'7 7.3
2014-Aug-15 12:33N 37°37' E 024°35'6 6.2
2014-Aug-15 11:33N 37°40' E 024°28'21 1.1
2014-Aug-14 17:32N 37°38' E 024°02'9 7.1
2014-Aug-14 16:18N 37°38' E 023°51'6 6.9
2014-Aug-14 15:26N 37°39' E 023°44'6 6.5
2014-Aug-14 14:33N 37°44' E 023°40'7 6.5
2014-Aug-14 13:33N 37°50' E 023°37'7 6.6
2014-Aug-14 12:33N 37°56' E 023°35'5 5.3
2014-Aug-14 11:33N 38°02' E 023°35'0 0.4
2014-Aug-14 10:28N 38°02' E 023°36'0 0.0
2014-Aug-14 09:13N 38°02' E 023°36'0 0.0
2014-Aug-14 08:28N 38°02' E 023°36'0 0.0
2014-Aug-14 07:32N 38°02' E 023°36'0 0.0
2014-Aug-14 06:23N 38°02' E 023°36'0 0.0
2014-Aug-14 05:05N 38°02' E 023°36'0 0.0
2014-Aug-14 04:24N 38°02' E 023°36'0 0.0
2014-Aug-14 03:15N 38°02' E 023°36'0 0.0
2014-Aug-14 02:29N 38°02' E 023°36'0 0.0
2014-Aug-14 01:33N 38°02' E 023°36'0 0.0
2014-Aug-14 00:31N 38°02' E 023°36'0 0.0
2014-Aug-13 23:16N 38°02' E 023°36'0 0.0
2014-Aug-13 22:31N 38°02' E 023°36'0 0.0
2014-Aug-13 21:20N 38°02' E 023°36'0 0.0
2014-Aug-13 20:33N 38°02' E 023°36'0 0.0
2014-Aug-13 19:33N 38°02' E 023°36'0 0.0
2014-Aug-13 18:32N 38°02' E 023°36'0 0.0
2014-Aug-13 17:25N 38°02' E 023°36'0 0.0
2014-Aug-13 16:29N 38°02' E 023°36'0 0.0
2014-Aug-13 15:33N 38°02' E 023°36'0 0.0
2014-Aug-13 14:33N 38°02' E 023°36'0 0.0
2014-Aug-13 13:33N 38°02' E 023°36'0 0.0
2014-Aug-13 12:33N 38°02' E 023°36'0 0.0
2014-Aug-13 11:29N 38°02' E 023°36'0 0.0
2014-Aug-13 10:33N 38°02' E 023°36'0 0.0
2014-Aug-13 09:24N 38°02' E 023°36'0 0.0
2014-Aug-13 08:29N 38°02' E 023°36'0 0.0
2014-Aug-13 07:30N 38°02' E 023°36'0 0.0
2014-Aug-13 06:30N 38°02' E 023°36'0 0.0
2014-Aug-13 05:31N 38°02' E 023°36'0 0.0
2014-Aug-13 04:29N 38°02' E 023°36'0 0.0
2014-Aug-13 03:33N 38°02' E 023°36'0 0.0
2014-Aug-12 22:29N 38°02' E 023°36'0 0.0
2014-Aug-12 20:25N 38°02' E 023°36'0 0.0
2014-Aug-12 19:15N 38°02' E 023°36'0 0.0
2014-Aug-12 18:11N 38°02' E 023°36'0 0.0
2014-Aug-12 17:25N 38°02' E 023°36'0 0.0
2014-Aug-12 16:33N 38°02' E 023°36'0 0.0
2014-Aug-12 15:29N 38°02' E 023°36'0 0.0
2014-Aug-12 14:29N 38°02' E 023°36'0 0.0
2014-Aug-12 13:03N 38°02' E 023°36'0 0.0
2014-Aug-12 12:31N 38°02' E 023°36'0 0.0
2014-Aug-12 10:31N 38°02' E 023°36'0 0.0
2014-Aug-12 09:26N 38°02' E 023°36'0 0.0
2014-Aug-12 08:33N 38°02' E 023°36'0 0.0
2014-Aug-12 07:33N 38°02' E 023°36'0 0.0
2014-Aug-12 06:30N 38°02' E 023°36'0 0.0
2014-Aug-12 05:22N 38°02' E 023°36'0 0.0
2014-Aug-11 20:33N 38°02' E 023°36'0 0.0
2014-Aug-11 17:31N 38°02' E 023°36'0 0.0
2014-Aug-11 16:33N 38°02' E 023°36'0 0.0
2014-Aug-11 15:30N 38°02' E 023°36'0 0.0
2014-Aug-11 14:32N 38°02' E 023°36'0 0.0
2014-Aug-11 13:30N 38°02' E 023°36'0 0.0
2014-Aug-11 12:33N 38°02' E 023°36'0 0.0
2014-Aug-11 11:28N 38°02' E 023°36'0 0.0
2014-Aug-11 10:29N 38°02' E 023°36'0 0.0
2014-Aug-11 09:14N 38°02' E 023°36'0 0.0
2014-Aug-11 08:12N 38°02' E 023°36'0 0.0
2014-Aug-11 07:33N 38°02' E 023°36'0 0.0
2014-Aug-11 06:22N 38°02' E 023°36'0 0.0
2014-Aug-11 05:32N 38°02' E 023°36'0 0.0
2014-Aug-11 04:33N 38°02' E 023°36'0 0.0
2014-Aug-11 03:16N 38°02' E 023°36'0 0.0
2014-Aug-11 01:18N 38°02' E 023°36'0 0.0
2014-Aug-11 00:25N 38°02' E 023°36'0 0.0
2014-Aug-10 23:23N 38°02' E 023°36'0 0.0
2014-Aug-10 22:26N 38°02' E 023°36'0 0.0
2014-Aug-10 21:33N 38°02' E 023°36'0 0.0
2014-Aug-10 20:10N 38°02' E 023°36'0 0.0
2014-Aug-10 18:26N 38°02' E 023°36'0 0.0
2014-Aug-10 17:33N 38°02' E 023°36'0 0.0
2014-Aug-10 16:32N 38°02' E 023°36'0 0.0
2014-Aug-10 15:33N 38°02' E 023°36'0 0.0
2014-Aug-10 14:33N 38°02' E 023°36'0 0.0
2014-Aug-10 13:33N 38°02' E 023°36'7 6.8
2014-Aug-10 12:33N 38°00' E 023°27'7 6.4
2014-Aug-10 11:32N 37°55' E 023°23'7 7.4
2014-Aug-10 10:33N 37°47' E 023°25'  

Dump ship's entire track history